Airport View

Enter AWOS ICAO identifier for current METAR.

ex. KFNL

PATG 191856Z AUTO 13008KT OVC016 10/07 A3018 RMK AO2 SLP316 T01000072 PWINO $

19 Jun 2019 19:19

Frequency: 119.3

Other Area AWOS: PAPM - PAMB - PAEH - PADL

TAF PADL 191742Z 1918/2018 VRB06KT P6SM OVC015 FM200000 17008KT P6SM SCT020 BKN050 FM201200 VRB03KT P6SM OVC015